sensor_id;sensor_type;location;lat;lon;timestamp;P1;durP1;ratioP1;P2;durP2;ratioP2
21281;SDS011;10800;53.096;18.328;2023-06-22T00:02:35;11.43;;;7.57;;
21281;SDS011;10800;53.096;18.328;2023-06-22T00:07:41;10.53;;;6.67;;
21281;SDS011;10800;53.096;18.328;2023-06-22T00:12:47;9.63;;;6.40;;
21281;SDS011;10800;53.096;18.328;2023-06-22T00:17:53;11.70;;;6.27;;
21281;SDS011;10800;53.096;18.328;2023-06-22T00:22:58;12.63;;;7.30;;
21281;SDS011;10800;53.096;18.328;2023-06-22T00:28:04;11.27;;;7.43;;
21281;SDS011;10800;53.096;18.328;2023-06-22T00:33:11;12.83;;;6.67;;
21281;SDS011;10800;53.096;18.328;2023-06-22T00:38:17;12.30;;;7.17;;
21281;SDS011;10800;53.096;18.328;2023-06-22T00:43:22;12.10;;;6.70;;
21281;SDS011;10800;53.096;18.328;2023-06-22T00:48:28;10.97;;;6.50;;
21281;SDS011;10800;53.096;18.328;2023-06-22T00:53:34;9.97;;;6.60;;
21281;SDS011;10800;53.096;18.328;2023-06-22T00:58:41;13.50;;;6.90;;
21281;SDS011;10800;53.096;18.328;2023-06-22T01:03:46;10.10;;;7.00;;
21281;SDS011;10800;53.096;18.328;2023-06-22T01:09:05;10.40;;;6.97;;
21281;SDS011;10800;53.096;18.328;2023-06-22T01:19:43;9.63;;;6.53;;
21281;SDS011;10800;53.096;18.328;2023-06-22T01:30:15;11.23;;;6.47;;
21281;SDS011;10800;53.096;18.328;2023-06-22T01:35:24;14.23;;;7.10;;
21281;SDS011;10800;53.096;18.328;2023-06-22T01:40:31;9.83;;;6.33;;
21281;SDS011;10800;53.096;18.328;2023-06-22T01:45:38;11.23;;;6.77;;
21281;SDS011;10800;53.096;18.328;2023-06-22T01:50:44;8.13;;;5.87;;
21281;SDS011;10800;53.096;18.328;2023-06-22T01:55:50;8.17;;;5.47;;
21281;SDS011;10800;53.096;18.328;2023-06-22T02:01:11;9.17;;;5.97;;
21281;SDS011;10800;53.096;18.328;2023-06-22T02:06:30;7.33;;;5.10;;
21281;SDS011;10800;53.096;18.328;2023-06-22T02:11:30;10.23;;;5.83;;
21281;SDS011;10800;53.096;18.328;2023-06-22T02:16:38;7.77;;;4.87;;
21281;SDS011;10800;53.096;18.328;2023-06-22T02:21:44;7.30;;;4.40;;
21281;SDS011;10800;53.096;18.328;2023-06-22T02:26:50;7.20;;;4.63;;
21281;SDS011;10800;53.096;18.328;2023-06-22T02:31:56;5.63;;;4.13;;
21281;SDS011;10800;53.096;18.328;2023-06-22T02:37:03;6.23;;;4.47;;
21281;SDS011;10800;53.096;18.328;2023-06-22T02:42:09;11.43;;;5.03;;
21281;SDS011;10800;53.096;18.328;2023-06-22T02:47:16;11.13;;;4.70;;
21281;SDS011;10800;53.096;18.328;2023-06-22T02:52:22;6.67;;;4.03;;
21281;SDS011;10800;53.096;18.328;2023-06-22T02:57:28;9.17;;;4.30;;
21281;SDS011;10800;53.096;18.328;2023-06-22T03:02:37;8.67;;;3.97;;
21281;SDS011;10800;53.096;18.328;2023-06-22T03:07:43;6.83;;;3.50;;
21281;SDS011;10800;53.096;18.328;2023-06-22T03:12:50;5.73;;;3.47;;
21281;SDS011;10800;53.096;18.328;2023-06-22T03:17:55;8.30;;;3.80;;
21281;SDS011;10800;53.096;18.328;2023-06-22T03:23:01;6.00;;;3.43;;
21281;SDS011;10800;53.096;18.328;2023-06-22T03:28:06;9.77;;;3.97;;
21281;SDS011;10800;53.096;18.328;2023-06-22T03:33:12;8.20;;;4.00;;
21281;SDS011;10800;53.096;18.328;2023-06-22T03:38:25;7.73;;;4.30;;
21281;SDS011;10800;53.096;18.328;2023-06-22T03:43:34;6.77;;;3.43;;
21281;SDS011;10800;53.096;18.328;2023-06-22T03:48:39;6.00;;;4.17;;
21281;SDS011;10800;53.096;18.328;2023-06-22T03:53:46;6.50;;;3.60;;
21281;SDS011;10800;53.096;18.328;2023-06-22T03:58:54;20.27;;;4.30;;
21281;SDS011;10800;53.096;18.328;2023-06-22T04:04:04;4.53;;;3.73;;
21281;SDS011;10800;53.096;18.328;2023-06-22T04:09:16;5.60;;;3.50;;
21281;SDS011;10800;53.096;18.328;2023-06-22T04:14:22;5.90;;;3.53;;
21281;SDS011;10800;53.096;18.328;2023-06-22T04:19:29;6.53;;;3.40;;
21281;SDS011;10800;53.096;18.328;2023-06-22T04:24:45;4.50;;;3.03;;
21281;SDS011;10800;53.096;18.328;2023-06-22T04:29:50;7.60;;;2.90;;
21281;SDS011;10800;53.096;18.328;2023-06-22T04:34:56;4.30;;;2.93;;
21281;SDS011;10800;53.096;18.328;2023-06-22T04:40:01;4.70;;;2.90;;
21281;SDS011;10800;53.096;18.328;2023-06-22T04:45:08;6.13;;;2.93;;
21281;SDS011;10800;53.096;18.328;2023-06-22T04:50:14;5.03;;;3.20;;
21281;SDS011;10800;53.096;18.328;2023-06-22T04:55:21;4.80;;;2.93;;
21281;SDS011;10800;53.096;18.328;2023-06-22T05:00:26;5.67;;;2.83;;
21281;SDS011;10800;53.096;18.328;2023-06-22T05:05:33;6.83;;;3.13;;
21281;SDS011;10800;53.096;18.328;2023-06-22T05:10:38;5.17;;;3.13;;
21281;SDS011;10800;53.096;18.328;2023-06-22T05:15:47;7.03;;;3.00;;
21281;SDS011;10800;53.096;18.328;2023-06-22T05:20:52;5.07;;;2.97;;
21281;SDS011;10800;53.096;18.328;2023-06-22T05:25:57;5.47;;;3.10;;
21281;SDS011;10800;53.096;18.328;2023-06-22T05:31:03;7.47;;;2.97;;
21281;SDS011;10800;53.096;18.328;2023-06-22T05:36:08;4.87;;;3.80;;
21281;SDS011;10800;53.096;18.328;2023-06-22T05:41:14;4.23;;;2.67;;
21281;SDS011;10800;53.096;18.328;2023-06-22T05:46:19;6.17;;;3.13;;
21281;SDS011;10800;53.096;18.328;2023-06-22T05:51:24;4.42;;;2.70;;
21281;SDS011;10800;53.096;18.328;2023-06-22T05:56:30;4.20;;;2.58;;
21281;SDS011;10800;53.096;18.328;2023-06-22T06:01:35;4.80;;;3.20;;
21281;SDS011;10800;53.096;18.328;2023-06-22T06:06:40;3.80;;;2.98;;
21281;SDS011;10800;53.096;18.328;2023-06-22T06:11:46;7.40;;;2.85;;
21281;SDS011;10800;53.096;18.328;2023-06-22T06:16:52;5.62;;;3.05;;
21281;SDS011;10800;53.096;18.328;2023-06-22T06:21:57;4.53;;;2.35;;
21281;SDS011;10800;53.096;18.328;2023-06-22T06:27:02;9.90;;;2.87;;
21281;SDS011;10800;53.096;18.328;2023-06-22T06:32:08;6.10;;;2.92;;
21281;SDS011;10800;53.096;18.328;2023-06-22T06:37:13;3.62;;;2.55;;
21281;SDS011;10800;53.096;18.328;2023-06-22T06:42:19;6.72;;;2.35;;
21281;SDS011;10800;53.096;18.328;2023-06-22T06:47:26;3.85;;;2.02;;
21281;SDS011;10800;53.096;18.328;2023-06-22T06:52:32;3.70;;;1.72;;
21281;SDS011;10800;53.096;18.328;2023-06-22T06:57:39;4.30;;;2.17;;
21281;SDS011;10800;53.096;18.328;2023-06-22T07:02:46;4.10;;;2.12;;
21281;SDS011;10800;53.096;18.328;2023-06-22T07:07:52;3.00;;;2.15;;
21281;SDS011;10800;53.096;18.328;2023-06-22T07:12:58;2.75;;;2.42;;
21281;SDS011;10800;53.096;18.328;2023-06-22T07:18:04;5.25;;;2.27;;
21281;SDS011;10800;53.096;18.328;2023-06-22T07:23:09;5.58;;;2.52;;
21281;SDS011;10800;53.096;18.328;2023-06-22T07:28:14;4.15;;;2.10;;
21281;SDS011;10800;53.096;18.328;2023-06-22T07:33:19;4.55;;;2.10;;
21281;SDS011;10800;53.096;18.328;2023-06-22T07:38:25;3.75;;;1.95;;
21281;SDS011;10800;53.096;18.328;2023-06-22T07:43:30;3.70;;;2.47;;
21281;SDS011;10800;53.096;18.328;2023-06-22T07:48:37;5.78;;;2.00;;
21281;SDS011;10800;53.096;18.328;2023-06-22T07:53:44;4.47;;;1.67;;
21281;SDS011;10800;53.096;18.328;2023-06-22T07:58:50;5.58;;;1.90;;
21281;SDS011;10800;53.096;18.328;2023-06-22T08:03:56;3.45;;;2.12;;
21281;SDS011;10800;53.096;18.328;2023-06-22T08:09:02;1.85;;;1.67;;
21281;SDS011;10800;53.096;18.328;2023-06-22T08:14:07;3.05;;;1.90;;
21281;SDS011;10800;53.096;18.328;2023-06-22T08:24:31;2.25;;;1.67;;
21281;SDS011;10800;53.096;18.328;2023-06-22T08:29:37;3.95;;;1.98;;
21281;SDS011;10800;53.096;18.328;2023-06-22T08:34:42;2.45;;;1.80;;
21281;SDS011;10800;53.096;18.328;2023-06-22T08:39:47;4.22;;;1.72;;
21281;SDS011;10800;53.096;18.328;2023-06-22T08:44:53;2.25;;;1.82;;
21281;SDS011;10800;53.096;18.328;2023-06-22T08:49:58;4.37;;;1.95;;
21281;SDS011;10800;53.096;18.328;2023-06-22T08:55:05;1.98;;;1.77;;
21281;SDS011;10800;53.096;18.328;2023-06-22T09:00:11;1.70;;;1.57;;
21281;SDS011;10800;53.096;18.328;2023-06-22T09:05:22;2.67;;;2.02;;
21281;SDS011;10800;53.096;18.328;2023-06-22T09:10:30;9.25;;;2.37;;
21281;SDS011;10800;53.096;18.328;2023-06-22T09:15:36;10.72;;;1.50;;
21281;SDS011;10800;53.096;18.328;2023-06-22T09:20:42;2.05;;;1.30;;
21281;SDS011;10800;53.096;18.328;2023-06-22T09:25:47;2.50;;;1.60;;
21281;SDS011;10800;53.096;18.328;2023-06-22T09:30:52;5.15;;;1.72;;
21281;SDS011;10800;53.096;18.328;2023-06-22T09:35:59;2.00;;;1.65;;
21281;SDS011;10800;53.096;18.328;2023-06-22T09:41:05;3.98;;;1.65;;
21281;SDS011;10800;53.096;18.328;2023-06-22T09:46:10;1.67;;;1.52;;
21281;SDS011;10800;53.096;18.328;2023-06-22T09:51:15;9.40;;;1.90;;
21281;SDS011;10800;53.096;18.328;2023-06-22T09:56:22;3.60;;;1.25;;
21281;SDS011;10800;53.096;18.328;2023-06-22T10:01:30;2.77;;;1.50;;
21281;SDS011;10800;53.096;18.328;2023-06-22T10:06:38;3.22;;;1.72;;
21281;SDS011;10800;53.096;18.328;2023-06-22T10:11:44;2.05;;;1.47;;
21281;SDS011;10800;53.096;18.328;2023-06-22T10:16:49;2.40;;;1.67;;
21281;SDS011;10800;53.096;18.328;2023-06-22T10:21:56;2.15;;;1.72;;
21281;SDS011;10800;53.096;18.328;2023-06-22T10:32:19;1.85;;;1.35;;
21281;SDS011;10800;53.096;18.328;2023-06-22T10:37:25;4.53;;;1.85;;
21281;SDS011;10800;53.096;18.328;2023-06-22T10:42:30;2.75;;;1.50;;
21281;SDS011;10800;53.096;18.328;2023-06-22T10:47:35;1.60;;;1.50;;
21281;SDS011;10800;53.096;18.328;2023-06-22T10:52:41;1.72;;;1.37;;
21281;SDS011;10800;53.096;18.328;2023-06-22T10:57:46;1.87;;;1.50;;
21281;SDS011;10800;53.096;18.328;2023-06-22T11:02:53;4.33;;;1.67;;
21281;SDS011;10800;53.096;18.328;2023-06-22T11:07:59;2.20;;;1.42;;
21281;SDS011;10800;53.096;18.328;2023-06-22T11:13:04;4.12;;;2.10;;
21281;SDS011;10800;53.096;18.328;2023-06-22T11:18:11;1.72;;;1.60;;
21281;SDS011;10800;53.096;18.328;2023-06-22T11:23:17;3.98;;;2.17;;
21281;SDS011;10800;53.096;18.328;2023-06-22T11:28:22;3.10;;;1.67;;
21281;SDS011;10800;53.096;18.328;2023-06-22T11:33:33;3.35;;;1.52;;
21281;SDS011;10800;53.096;18.328;2023-06-22T11:38:38;3.10;;;1.80;;
21281;SDS011;10800;53.096;18.328;2023-06-22T11:43:44;2.10;;;1.70;;
21281;SDS011;10800;53.096;18.328;2023-06-22T11:48:49;2.62;;;1.90;;
21281;SDS011;10800;53.096;18.328;2023-06-22T11:54:04;1.65;;;1.30;;
21281;SDS011;10800;53.096;18.328;2023-06-22T11:59:09;3.33;;;1.27;;
21281;SDS011;10800;53.096;18.328;2023-06-22T12:04:14;1.35;;;1.20;;
21281;SDS011;10800;53.096;18.328;2023-06-22T12:09:21;2.30;;;1.62;;
21281;SDS011;10800;53.096;18.328;2023-06-22T12:14:28;3.20;;;1.57;;
21281;SDS011;10800;53.096;18.328;2023-06-22T12:19:35;1.50;;;1.40;;
21281;SDS011;10800;53.096;18.328;2023-06-22T12:24:41;2.12;;;1.47;;
21281;SDS011;10800;53.096;18.328;2023-06-22T12:29:46;3.80;;;1.60;;
21281;SDS011;10800;53.096;18.328;2023-06-22T12:34:57;1.95;;;1.35;;
21281;SDS011;10800;53.096;18.328;2023-06-22T12:40:03;2.85;;;1.70;;
21281;SDS011;10800;53.096;18.328;2023-06-22T12:45:09;3.62;;;1.75;;
21281;SDS011;10800;53.096;18.328;2023-06-22T12:50:14;1.85;;;1.35;;
21281;SDS011;10800;53.096;18.328;2023-06-22T13:00:28;2.10;;;1.30;;
21281;SDS011;10800;53.096;18.328;2023-06-22T13:05:34;1.77;;;1.10;;
21281;SDS011;10800;53.096;18.328;2023-06-22T13:10:40;3.40;;;1.65;;
21281;SDS011;10800;53.096;18.328;2023-06-22T13:15:46;1.55;;;1.10;;
21281;SDS011;10800;53.096;18.328;2023-06-22T13:20:52;2.20;;;1.42;;
21281;SDS011;10800;53.096;18.328;2023-06-22T13:25:59;3.85;;;1.47;;
21281;SDS011;10800;53.096;18.328;2023-06-22T13:31:06;5.25;;;1.50;;
21281;SDS011;10800;53.096;18.328;2023-06-22T13:36:14;6.70;;;1.57;;
21281;SDS011;10800;53.096;18.328;2023-06-22T13:41:21;2.83;;;1.45;;
21281;SDS011;10800;53.096;18.328;2023-06-22T13:46:27;1.30;;;1.05;;
21281;SDS011;10800;53.096;18.328;2023-06-22T13:51:33;3.12;;;1.40;;
21281;SDS011;10800;53.096;18.328;2023-06-22T13:56:38;1.62;;;1.37;;
21281;SDS011;10800;53.096;18.328;2023-06-22T14:01:44;1.90;;;1.47;;
21281;SDS011;10800;53.096;18.328;2023-06-22T14:06:49;2.70;;;1.40;;
21281;SDS011;10800;53.096;18.328;2023-06-22T14:11:57;2.62;;;1.72;;
21281;SDS011;10800;53.096;18.328;2023-06-22T14:17:04;1.65;;;1.10;;
21281;SDS011;10800;53.096;18.328;2023-06-22T14:22:10;2.85;;;1.35;;
21281;SDS011;10800;53.096;18.328;2023-06-22T14:27:16;2.42;;;1.47;;
21281;SDS011;10800;53.096;18.328;2023-06-22T14:32:21;2.90;;;1.25;;
21281;SDS011;10800;53.096;18.328;2023-06-22T14:37:29;3.00;;;1.92;;
21281;SDS011;10800;53.096;18.328;2023-06-22T14:42:34;2.58;;;1.37;;
21281;SDS011;10800;53.096;18.328;2023-06-22T14:47:40;1.80;;;1.32;;
21281;SDS011;10800;53.096;18.328;2023-06-22T14:52:45;1.50;;;1.30;;
21281;SDS011;10800;53.096;18.328;2023-06-22T14:57:51;2.25;;;1.10;;
21281;SDS011;10800;53.096;18.328;2023-06-22T15:02:56;1.75;;;1.32;;
21281;SDS011;10800;53.096;18.328;2023-06-22T15:08:03;1.62;;;1.45;;
21281;SDS011;10800;53.096;18.328;2023-06-22T15:13:08;3.40;;;1.62;;
21281;SDS011;10800;53.096;18.328;2023-06-22T15:18:14;3.17;;;1.65;;
21281;SDS011;10800;53.096;18.328;2023-06-22T15:23:20;3.65;;;1.42;;
21281;SDS011;10800;53.096;18.328;2023-06-22T15:28:25;2.65;;;1.40;;
21281;SDS011;10800;53.096;18.328;2023-06-22T15:33:30;1.47;;;1.30;;
21281;SDS011;10800;53.096;18.328;2023-06-22T15:38:36;2.25;;;1.60;;
21281;SDS011;10800;53.096;18.328;2023-06-22T15:43:41;1.30;;;1.20;;
21281;SDS011;10800;53.096;18.328;2023-06-22T15:48:47;1.70;;;1.30;;
21281;SDS011;10800;53.096;18.328;2023-06-22T15:53:54;1.40;;;1.10;;
21281;SDS011;10800;53.096;18.328;2023-06-22T15:59:01;1.85;;;1.55;;
21281;SDS011;10800;53.096;18.328;2023-06-22T16:04:07;2.65;;;1.37;;
21281;SDS011;10800;53.096;18.328;2023-06-22T16:09:12;2.92;;;1.50;;
21281;SDS011;10800;53.096;18.328;2023-06-22T16:14:18;2.27;;;1.50;;
21281;SDS011;10800;53.096;18.328;2023-06-22T16:19:24;3.70;;;1.60;;
21281;SDS011;10800;53.096;18.328;2023-06-22T16:24:30;2.77;;;1.47;;
21281;SDS011;10800;53.096;18.328;2023-06-22T16:29:36;2.72;;;1.50;;
21281;SDS011;10800;53.096;18.328;2023-06-22T16:34:43;3.40;;;2.00;;
21281;SDS011;10800;53.096;18.328;2023-06-22T16:39:50;4.12;;;1.62;;
21281;SDS011;10800;53.096;18.328;2023-06-22T16:44:56;3.17;;;1.55;;
21281;SDS011;10800;53.096;18.328;2023-06-22T16:50:02;1.67;;;1.25;;
21281;SDS011;10800;53.096;18.328;2023-06-22T16:55:09;5.85;;;2.55;;
21281;SDS011;10800;53.096;18.328;2023-06-22T17:00:15;4.90;;;1.50;;
21281;SDS011;10800;53.096;18.328;2023-06-22T17:05:22;7.58;;;2.40;;
21281;SDS011;10800;53.096;18.328;2023-06-22T17:10:27;2.80;;;2.00;;
21281;SDS011;10800;53.096;18.328;2023-06-22T17:15:36;3.98;;;2.02;;
21281;SDS011;10800;53.096;18.328;2023-06-22T17:20:43;3.47;;;1.77;;
21281;SDS011;10800;53.096;18.328;2023-06-22T17:25:53;3.47;;;2.00;;
21281;SDS011;10800;53.096;18.328;2023-06-22T17:31:10;2.90;;;1.60;;
21281;SDS011;10800;53.096;18.328;2023-06-22T17:36:25;11.65;;;1.62;;
21281;SDS011;10800;53.096;18.328;2023-06-22T17:41:33;1.57;;;1.40;;
21281;SDS011;10800;53.096;18.328;2023-06-22T17:46:45;2.22;;;1.57;;
21281;SDS011;10800;53.096;18.328;2023-06-22T17:51:52;2.45;;;1.32;;
21281;SDS011;10800;53.096;18.328;2023-06-22T17:56:58;3.83;;;1.77;;
21281;SDS011;10800;53.096;18.328;2023-06-22T18:02:06;4.97;;;2.00;;
21281;SDS011;10800;53.096;18.328;2023-06-22T18:07:15;8.25;;;1.70;;
21281;SDS011;10800;53.096;18.328;2023-06-22T18:12:21;3.50;;;1.62;;
21281;SDS011;10800;53.096;18.328;2023-06-22T18:17:29;4.35;;;2.12;;
21281;SDS011;10800;53.096;18.328;2023-06-22T18:22:35;3.22;;;1.72;;
21281;SDS011;10800;53.096;18.328;2023-06-22T18:27:43;4.78;;;1.47;;
21281;SDS011;10800;53.096;18.328;2023-06-22T18:32:50;5.53;;;1.65;;
21281;SDS011;10800;53.096;18.328;2023-06-22T18:37:57;4.65;;;2.62;;
21281;SDS011;10800;53.096;18.328;2023-06-22T18:43:03;4.30;;;2.20;;
21281;SDS011;10800;53.096;18.328;2023-06-22T18:48:09;1.82;;;1.60;;
21281;SDS011;10800;53.096;18.328;2023-06-22T18:53:15;3.15;;;1.65;;
21281;SDS011;10800;53.096;18.328;2023-06-22T18:58:23;3.08;;;2.12;;
21281;SDS011;10800;53.096;18.328;2023-06-22T19:03:29;3.45;;;1.70;;
21281;SDS011;10800;53.096;18.328;2023-06-22T19:14:22;3.47;;;1.95;;
21281;SDS011;10800;53.096;18.328;2023-06-22T19:19:28;6.47;;;2.67;;
21281;SDS011;10800;53.096;18.328;2023-06-22T19:24:47;8.63;;;3.00;;
21281;SDS011;10800;53.096;18.328;2023-06-22T19:29:53;5.08;;;2.98;;
21281;SDS011;10800;53.096;18.328;2023-06-22T19:35:00;29.98;;;7.05;;
21281;SDS011;10800;53.096;18.328;2023-06-22T19:40:14;28.65;;;8.03;;
21281;SDS011;10800;53.096;18.328;2023-06-22T19:45:22;11.60;;;3.98;;
21281;SDS011;10800;53.096;18.328;2023-06-22T19:50:32;8.35;;;3.77;;
21281;SDS011;10800;53.096;18.328;2023-06-22T19:55:36;8.18;;;3.80;;
21281;SDS011;10800;53.096;18.328;2023-06-22T20:00:46;7.10;;;3.67;;
21281;SDS011;10800;53.096;18.328;2023-06-22T20:06:07;6.33;;;3.75;;
21281;SDS011;10800;53.096;18.328;2023-06-22T20:11:24;7.10;;;3.72;;
21281;SDS011;10800;53.096;18.328;2023-06-22T20:16:36;5.62;;;3.20;;
21281;SDS011;10800;53.096;18.328;2023-06-22T20:21:43;7.10;;;3.33;;
21281;SDS011;10800;53.096;18.328;2023-06-22T20:26:49;10.68;;;4.60;;
21281;SDS011;10800;53.096;18.328;2023-06-22T20:37:15;30.13;;;5.43;;
21281;SDS011;10800;53.096;18.328;2023-06-22T20:42:26;11.60;;;5.30;;
21281;SDS011;10800;53.096;18.328;2023-06-22T20:47:32;6.25;;;3.65;;
21281;SDS011;10800;53.096;18.328;2023-06-22T20:52:37;10.18;;;3.72;;
21281;SDS011;10800;53.096;18.328;2023-06-22T20:57:44;11.33;;;3.30;;
21281;SDS011;10800;53.096;18.328;2023-06-22T21:02:50;6.93;;;3.33;;
21281;SDS011;10800;53.096;18.328;2023-06-22T21:07:56;9.80;;;5.03;;
21281;SDS011;10800;53.096;18.328;2023-06-22T21:13:02;13.53;;;5.03;;
21281;SDS011;10800;53.096;18.328;2023-06-22T21:18:07;7.87;;;4.50;;
21281;SDS011;10800;53.096;18.328;2023-06-22T21:23:13;7.90;;;3.77;;
21281;SDS011;10800;53.096;18.328;2023-06-22T21:28:20;15.13;;;5.63;;
21281;SDS011;10800;53.096;18.328;2023-06-22T21:33:26;16.50;;;9.33;;
21281;SDS011;10800;53.096;18.328;2023-06-22T21:38:31;19.33;;;9.60;;
21281;SDS011;10800;53.096;18.328;2023-06-22T21:43:36;18.37;;;6.90;;
21281;SDS011;10800;53.096;18.328;2023-06-22T21:48:43;16.50;;;6.73;;
21281;SDS011;10800;53.096;18.328;2023-06-22T21:53:48;14.57;;;5.97;;
21281;SDS011;10800;53.096;18.328;2023-06-22T21:58:54;19.57;;;7.73;;
21281;SDS011;10800;53.096;18.328;2023-06-22T22:03:59;14.37;;;7.10;;
21281;SDS011;10800;53.096;18.328;2023-06-22T22:09:04;23.40;;;7.70;;
21281;SDS011;10800;53.096;18.328;2023-06-22T22:14:10;14.43;;;6.23;;
21281;SDS011;10800;53.096;18.328;2023-06-22T22:19:16;12.23;;;5.03;;
21281;SDS011;10800;53.096;18.328;2023-06-22T22:24:21;17.50;;;5.67;;
21281;SDS011;10800;53.096;18.328;2023-06-22T22:29:27;15.77;;;6.10;;
21281;SDS011;10800;53.096;18.328;2023-06-22T22:34:32;11.63;;;5.73;;
21281;SDS011;10800;53.096;18.328;2023-06-22T22:39:38;9.97;;;5.37;;
21281;SDS011;10800;53.096;18.328;2023-06-22T22:44:44;12.57;;;6.30;;
21281;SDS011;10800;53.096;18.328;2023-06-22T22:49:51;13.57;;;6.80;;
21281;SDS011;10800;53.096;18.328;2023-06-22T22:54:56;11.80;;;6.50;;
21281;SDS011;10800;53.096;18.328;2023-06-22T23:00:01;15.77;;;6.40;;
21281;SDS011;10800;53.096;18.328;2023-06-22T23:05:08;11.73;;;6.03;;
21281;SDS011;10800;53.096;18.328;2023-06-22T23:10:14;12.03;;;6.00;;
21281;SDS011;10800;53.096;18.328;2023-06-22T23:15:20;12.90;;;7.13;;
21281;SDS011;10800;53.096;18.328;2023-06-22T23:20:27;9.27;;;5.23;;
21281;SDS011;10800;53.096;18.328;2023-06-22T23:25:32;16.60;;;5.70;;
21281;SDS011;10800;53.096;18.328;2023-06-22T23:30:39;13.37;;;6.50;;
21281;SDS011;10800;53.096;18.328;2023-06-22T23:35:44;9.80;;;5.13;;
21281;SDS011;10800;53.096;18.328;2023-06-22T23:40:49;5.60;;;4.07;;
21281;SDS011;10800;53.096;18.328;2023-06-22T23:45:55;9.23;;;4.63;;
21281;SDS011;10800;53.096;18.328;2023-06-22T23:51:00;8.57;;;4.63;;
21281;SDS011;10800;53.096;18.328;2023-06-22T23:56:06;10.00;;;4.97;;
